Time;durP1;ratioP1;P1;durP2;ratioP2;P2;SDS_P1;SDS_P2;PMS_P1;PMS_P2;Temp;Humidity;BMP_temperature;BMP_pressure;BME280_temperature;BME280_humidity;BME280_pressure;Samples;Min_cycle;Max_cycle;Signal;HPM_P1;HPM_P2
2024/01/17 00:01:13;;;;;;;17.27;8.17;;;;;;;;;;5020942;28;20225;-75
2024/01/17 00:03:39;;;;;;;17.53;8.53;;;;;;;;;;5032065;28;20205;-74
2024/01/17 00:06:05;;;;;;;14.50;7.90;;;;;;;;;;5043341;28;20566;-75
2024/01/17 00:08:30;;;;;;;16.67;8.47;;;;;;;;;;5036181;28;20621;-75
2024/01/17 00:10:55;;;;;;;16.53;8.63;;;;;;;;;;5027635;28;20537;-75
2024/01/17 00:13:21;;;;;;;19.67;8.93;;;;;;;;;;5034071;28;20213;-75
2024/01/17 00:15:46;;;;;;;15.27;8.90;;;;;;;;;;5043503;28;20237;-75
2024/01/17 00:18:12;;;;;;;16.13;8.77;;;;;;;;;;5030293;28;20210;-75
2024/01/17 00:20:37;;;;;;;16.50;8.73;;;;;;;;;;5047592;28;20232;-75
2024/01/17 00:23:03;;;;;;;20.37;8.83;;;;;;;;;;5035431;28;20552;-75
2024/01/17 00:25:28;;;;;;;16.97;9.57;;;;;;;;;;5036807;28;20267;-75
2024/01/17 00:27:53;;;;;;;16.10;8.43;;;;;;;;;;5036013;28;20198;-75
2024/01/17 00:30:19;;;;;;;15.10;9.23;;;;;;;;;;5034962;28;20202;-75
2024/01/17 00:32:45;;;;;;;19.30;8.63;;;;;;;;;;5042766;28;20201;-75
2024/01/17 00:35:10;;;;;;;18.67;8.37;;;;;;;;;;5027301;28;20266;-74
2024/01/17 00:37:36;;;;;;;17.47;8.87;;;;;;;;;;5028541;28;20234;-74
2024/01/17 00:40:01;;;;;;;17.83;8.83;;;;;;;;;;5026569;28;20317;-75
2024/01/17 00:42:27;;;;;;;16.50;9.20;;;;;;;;;;5032045;28;20248;-75
2024/01/17 00:44:53;;;;;;;21.33;9.30;;;;;;;;;;5039607;28;20233;-75
2024/01/17 00:47:19;;;;;;;17.20;9.00;;;;;;;;;;5017021;28;20194;-75
2024/01/17 00:49:44;;;;;;;17.40;9.03;;;;;;;;;;5036873;28;20195;-75
2024/01/17 00:52:10;;;;;;;17.43;8.70;;;;;;;;;;5037929;28;20652;-75
2024/01/17 00:54:35;;;;;;;19.80;9.10;;;;;;;;;;5033918;28;20183;-75
2024/01/17 00:57:01;;;;;;;24.73;9.90;;;;;;;;;;5035351;28;20205;-75
2024/01/17 00:59:26;;;;;;;20.03;9.20;;;;;;;;;;5038188;28;20370;-75
2024/01/17 01:01:51;;;;;;;18.73;10.13;;;;;;;;;;5047631;28;20193;-75
2024/01/17 01:04:17;;;;;;;18.00;8.90;;;;;;;;;;5035988;28;20192;-75
2024/01/17 01:06:42;;;;;;;19.20;10.10;;;;;;;;;;5041429;28;20280;-75
2024/01/17 01:09:09;;;;;;;20.73;9.77;;;;;;;;;;5029421;28;20587;-75
2024/01/17 01:11:36;;;;;;;15.20;8.80;;;;;;;;;;5043988;28;20700;-75
2024/01/17 01:14:02;;;;;;;18.80;9.83;;;;;;;;;;5032266;28;20595;-75
2024/01/17 01:16:27;;;;;;;14.83;8.63;;;;;;;;;;5044560;28;20275;-75
2024/01/17 01:18:53;;;;;;;18.67;9.50;;;;;;;;;;5042080;28;20225;-75
2024/01/17 01:21:19;;;;;;;19.80;9.37;;;;;;;;;;5035869;28;20305;-75
2024/01/17 01:23:46;;;;;;;17.23;9.77;;;;;;;;;;5040001;28;20185;-75
2024/01/17 01:26:11;;;;;;;19.63;9.53;;;;;;;;;;5036859;28;20673;-75
2024/01/17 01:28:37;;;;;;;19.60;9.83;;;;;;;;;;5040298;28;20241;-75
2024/01/17 01:31:02;;;;;;;16.17;9.07;;;;;;;;;;5040134;28;20190;-75
2024/01/17 01:33:28;;;;;;;19.87;9.20;;;;;;;;;;5035036;28;20200;-75
2024/01/17 01:35:53;;;;;;;14.53;8.57;;;;;;;;;;5038404;28;20213;-75
2024/01/17 01:38:19;;;;;;;17.23;9.13;;;;;;;;;;5042049;28;20190;-75
2024/01/17 01:40:45;;;;;;;17.03;8.33;;;;;;;;;;5032469;28;20297;-75
2024/01/17 01:43:17;;;;;;;24.37;9.90;;;;;;;;;;5030930;28;20247;-75
2024/01/17 01:45:43;;;;;;;14.10;8.90;;;;;;;;;;5030246;28;20186;-75
2024/01/17 01:48:08;;;;;;;18.47;8.70;;;;;;;;;;5031509;28;20216;-75
2024/01/17 01:50:33;;;;;;;16.13;8.90;;;;;;;;;;5031283;28;20275;-75
2024/01/17 01:52:59;;;;;;;19.23;9.20;;;;;;;;;;5028863;28;20194;-75
2024/01/17 01:55:25;;;;;;;18.47;8.80;;;;;;;;;;5041875;28;20513;-75
2024/01/17 01:57:51;;;;;;;16.30;8.40;;;;;;;;;;5036597;28;20268;-74
2024/01/17 02:00:17;;;;;;;14.87;8.90;;;;;;;;;;5029364;28;20233;-74
2024/01/17 02:02:44;;;;;;;17.40;8.80;;;;;;;;;;5035229;28;20234;-75
2024/01/17 02:05:10;;;;;;;19.10;9.17;;;;;;;;;;5045663;28;20267;-76
2024/01/17 02:07:37;;;;;;;20.43;9.03;;;;;;;;;;5039644;28;20194;-76
2024/01/17 02:10:03;;;;;;;16.37;8.10;;;;;;;;;;5033564;28;20194;-75
2024/01/17 02:12:30;;;;;;;22.10;9.53;;;;;;;;;;5034072;28;20236;-76
2024/01/17 02:14:55;;;;;;;18.23;9.20;;;;;;;;;;5037216;28;20226;-76
2024/01/17 02:17:21;;;;;;;17.07;8.77;;;;;;;;;;5037816;28;20189;-76
2024/01/17 02:19:46;;;;;;;17.33;8.50;;;;;;;;;;5045647;28;20225;-76
2024/01/17 02:22:12;;;;;;;14.57;8.57;;;;;;;;;;5031464;28;20202;-76
2024/01/17 02:24:37;;;;;;;15.80;8.53;;;;;;;;;;5037912;28;20556;-76
2024/01/17 02:27:03;;;;;;;17.47;9.10;;;;;;;;;;5031538;28;20276;-76
2024/01/17 02:29:29;;;;;;;18.77;8.70;;;;;;;;;;5041068;28;20210;-76
2024/01/17 02:31:56;;;;;;;20.10;8.93;;;;;;;;;;5033010;28;20491;-76
2024/01/17 02:34:22;;;;;;;19.80;8.67;;;;;;;;;;5044627;28;20196;-76
2024/01/17 02:36:47;;;;;;;16.90;8.83;;;;;;;;;;5043866;28;20181;-76
2024/01/17 02:39:15;;;;;;;16.27;8.53;;;;;;;;;;5044454;28;20182;-76
2024/01/17 02:41:41;;;;;;;20.63;9.00;;;;;;;;;;5033782;28;20200;-76
2024/01/17 02:44:07;;;;;;;21.80;8.90;;;;;;;;;;5039211;28;20206;-76
2024/01/17 02:46:32;;;;;;;19.43;8.80;;;;;;;;;;5029180;28;20193;-75
2024/01/17 02:48:58;;;;;;;17.83;9.27;;;;;;;;;;5026987;28;20599;-75
2024/01/17 02:51:23;;;;;;;18.33;9.00;;;;;;;;;;5042868;28;20267;-76
2024/01/17 02:53:48;;;;;;;17.80;8.63;;;;;;;;;;5041850;28;20197;-76
2024/01/17 02:56:16;;;;;;;18.30;9.23;;;;;;;;;;5034597;28;20501;-75
2024/01/17 02:58:42;;;;;;;17.23;8.97;;;;;;;;;;5037209;28;20213;-75
2024/01/17 03:01:07;;;;;;;16.87;9.33;;;;;;;;;;5041580;28;20217;-76
2024/01/17 03:03:33;;;;;;;22.70;9.47;;;;;;;;;;5028004;28;20193;-75
2024/01/17 03:05:58;;;;;;;19.23;9.27;;;;;;;;;;5028012;28;20208;-76
2024/01/17 03:08:24;;;;;;;19.07;9.33;;;;;;;;;;5033467;28;20185;-75
2024/01/17 03:10:49;;;;;;;21.13;9.60;;;;;;;;;;5036447;28;20252;-76
2024/01/17 03:13:15;;;;;;;17.03;8.17;;;;;;;;;;5039686;28;20196;-76
2024/01/17 03:15:40;;;;;;;15.33;8.63;;;;;;;;;;5022331;28;20252;-76
2024/01/17 03:18:13;;;;;;;16.40;7.93;;;;;;;;;;5032232;28;20220;-76
2024/01/17 03:20:41;;;;;;;18.23;8.70;;;;;;;;;;5033919;28;20316;-75
2024/01/17 03:23:07;;;;;;;21.13;8.40;;;;;;;;;;5033916;28;20285;-76
2024/01/17 03:25:32;;;;;;;16.47;8.87;;;;;;;;;;5042609;28;20276;-75
2024/01/17 03:27:58;;;;;;;19.83;9.70;;;;;;;;;;5036419;28;20209;-75
2024/01/17 03:30:23;;;;;;;16.60;8.27;;;;;;;;;;5029310;28;20198;-75
2024/01/17 03:32:49;;;;;;;19.00;8.83;;;;;;;;;;5037357;28;20701;-76
2024/01/17 03:35:14;;;;;;;15.77;8.53;;;;;;;;;;5040080;28;20229;-76
2024/01/17 03:37:40;;;;;;;19.30;7.93;;;;;;;;;;5030274;28;20177;-76
2024/01/17 03:40:06;;;;;;;18.60;8.83;;;;;;;;;;5043367;28;20225;-76
2024/01/17 03:42:31;;;;;;;21.37;9.50;;;;;;;;;;5039086;28;20277;-75
2024/01/17 03:44:57;;;;;;;14.50;7.70;;;;;;;;;;5042964;28;20189;-76
2024/01/17 03:47:22;;;;;;;17.50;9.27;;;;;;;;;;5034601;28;20240;-76
2024/01/17 03:49:48;;;;;;;23.67;8.87;;;;;;;;;;5035491;28;20185;-76
2024/01/17 03:52:13;;;;;;;17.77;8.57;;;;;;;;;;5030395;28;20653;-76
2024/01/17 03:54:39;;;;;;;16.20;8.17;;;;;;;;;;5031563;28;20273;-76
2024/01/17 03:57:05;;;;;;;13.43;8.50;;;;;;;;;;5026613;28;20278;-76
2024/01/17 03:59:30;;;;;;;20.50;8.13;;;;;;;;;;5042819;28;20224;-76
2024/01/17 04:01:56;;;;;;;17.33;7.77;;;;;;;;;;5020162;28;20663;-76
2024/01/17 04:04:21;;;;;;;16.67;7.60;;;;;;;;;;5042379;28;20218;-76
2024/01/17 04:06:47;;;;;;;15.30;8.03;;;;;;;;;;5037413;28;20209;-76
2024/01/17 04:09:13;;;;;;;17.60;8.47;;;;;;;;;;5046359;28;20185;-76
2024/01/17 04:11:38;;;;;;;16.97;8.63;;;;;;;;;;5032913;28;20193;-76
2024/01/17 04:14:04;;;;;;;12.63;7.97;;;;;;;;;;5036934;28;20637;-76
2024/01/17 04:16:29;;;;;;;21.13;8.90;;;;;;;;;;5027412;28;20594;-76
2024/01/17 04:18:55;;;;;;;16.43;8.40;;;;;;;;;;5035047;28;20264;-76
2024/01/17 04:21:20;;;;;;;17.57;8.27;;;;;;;;;;5036995;28;20223;-75
2024/01/17 04:23:49;;;;;;;18.17;7.97;;;;;;;;;;5029401;28;20177;-76
2024/01/17 04:26:25;;;;;;;18.03;8.03;;;;;;;;;;5037887;28;20219;-76
2024/01/17 04:28:51;;;;;;;16.73;7.80;;;;;;;;;;5044772;28;20276;-75
2024/01/17 04:31:28;;;;;;;16.63;8.27;;;;;;;;;;5042213;28;20209;-76
2024/01/17 04:33:55;;;;;;;16.70;8.13;;;;;;;;;;5036611;28;20260;-75
2024/01/17 04:36:21;;;;;;;18.73;8.10;;;;;;;;;;5034219;28;20204;-76
2024/01/17 04:38:47;;;;;;;15.40;7.30;;;;;;;;;;5041683;28;20722;-76
2024/01/17 04:41:14;;;;;;;22.03;8.30;;;;;;;;;;5034506;28;20205;-76
2024/01/17 04:43:44;;;;;;;15.53;7.00;;;;;;;;;;5021538;28;20178;-76
2024/01/17 04:46:12;;;;;;;15.57;7.40;;;;;;;;;;5036687;28;20897;-76
2024/01/17 04:48:39;;;;;;;19.67;8.00;;;;;;;;;;5045497;28;20189;-75
2024/01/17 04:51:05;;;;;;;13.30;7.57;;;;;;;;;;5035279;28;20208;-75
2024/01/17 04:53:32;;;;;;;15.93;7.37;;;;;;;;;;5034563;28;20646;-75
2024/01/17 04:55:58;;;;;;;19.80;7.47;;;;;;;;;;5038937;28;20280;-75
2024/01/17 04:58:23;;;;;;;15.23;7.90;;;;;;;;;;5038325;28;20266;-75
2024/01/17 05:00:49;;;;;;;16.23;7.43;;;;;;;;;;5040520;28;20245;-75
2024/01/17 05:03:15;;;;;;;13.27;7.50;;;;;;;;;;5055884;28;20190;-75
2024/01/17 05:05:43;;;;;;;14.13;7.77;;;;;;;;;;5037114;28;20218;-75
2024/01/17 05:08:09;;;;;;;14.00;7.70;;;;;;;;;;5018640;28;20278;-76
2024/01/17 05:10:35;;;;;;;19.13;7.83;;;;;;;;;;5040457;28;20212;-75
2024/01/17 05:13:00;;;;;;;17.97;8.10;;;;;;;;;;5032079;28;20190;-75
2024/01/17 05:15:26;;;;;;;14.07;7.40;;;;;;;;;;5030968;28;20226;-75
2024/01/17 05:17:51;;;;;;;18.70;6.90;;;;;;;;;;5031844;28;20190;-75
2024/01/17 05:20:17;;;;;;;16.30;7.63;;;;;;;;;;5030545;28;20564;-75
2024/01/17 05:22:43;;;;;;;14.00;6.80;;;;;;;;;;5050275;28;20508;-76
2024/01/17 05:25:11;;;;;;;16.33;7.20;;;;;;;;;;5044919;28;20209;-75
2024/01/17 05:27:39;;;;;;;13.33;7.37;;;;;;;;;;5020952;28;20193;-75
2024/01/17 05:30:08;;;;;;;14.93;7.40;;;;;;;;;;5032078;28;20184;-75
2024/01/17 05:32:36;;;;;;;17.40;7.07;;;;;;;;;;5047094;28;20204;-75
2024/01/17 05:35:01;;;;;;;12.60;7.20;;;;;;;;;;5041762;28;20189;-76
2024/01/17 05:37:27;;;;;;;11.50;6.20;;;;;;;;;;5036681;28;20190;-76
2024/01/17 05:39:52;;;;;;;17.43;7.40;;;;;;;;;;5031261;28;20206;-75
2024/01/17 05:42:17;;;;;;;11.83;6.60;;;;;;;;;;5021728;28;20189;-75
2024/01/17 05:44:43;;;;;;;13.93;7.13;;;;;;;;;;5042479;28;20182;-75
2024/01/17 05:47:08;;;;;;;14.67;7.30;;;;;;;;;;5038781;28;20265;-75
2024/01/17 05:49:34;;;;;;;17.97;7.17;;;;;;;;;;5047355;28;20185;-77
2024/01/17 05:51:59;;;;;;;12.73;7.37;;;;;;;;;;5030524;28;20190;-75
2024/01/17 05:54:24;;;;;;;12.90;6.60;;;;;;;;;;5028937;28;20558;-75
2024/01/17 05:56:51;;;;;;;13.90;6.97;;;;;;;;;;5036224;28;20297;-75
2024/01/17 05:59:16;;;;;;;14.33;7.10;;;;;;;;;;5046650;28;20234;-75
2024/01/17 06:01:41;;;;;;;17.30;7.00;;;;;;;;;;5033451;28;20214;-75
2024/01/17 06:04:07;;;;;;;17.80;7.50;;;;;;;;;;5030817;28;20209;-75
2024/01/17 06:06:32;;;;;;;18.33;7.33;;;;;;;;;;5028559;28;20178;-76
2024/01/17 06:08:58;;;;;;;15.40;6.83;;;;;;;;;;5033342;28;20684;-75
2024/01/17 06:11:23;;;;;;;13.60;6.53;;;;;;;;;;5037091;28;20236;-75
2024/01/17 06:13:49;;;;;;;16.00;6.90;;;;;;;;;;5037052;28;20197;-75
2024/01/17 06:16:14;;;;;;;15.97;7.13;;;;;;;;;;5038795;28;20222;-75
2024/01/17 06:18:39;;;;;;;12.83;6.03;;;;;;;;;;5042769;28;20213;-75
2024/01/17 06:21:05;;;;;;;13.63;7.03;;;;;;;;;;5044408;28;20250;-75
2024/01/17 06:23:30;;;;;;;20.50;7.27;;;;;;;;;;5044554;28;20220;-75
2024/01/17 06:25:57;;;;;;;13.90;6.13;;;;;;;;;;5033980;28;20204;-75
2024/01/17 06:28:22;;;;;;;13.17;6.93;;;;;;;;;;5042276;28;20194;-75
2024/01/17 06:30:48;;;;;;;18.57;6.90;;;;;;;;;;5034812;28;20232;-75
2024/01/17 06:33:13;;;;;;;15.83;7.40;;;;;;;;;;5028900;28;20198;-75
2024/01/17 06:35:39;;;;;;;15.67;7.63;;;;;;;;;;5033868;28;20189;-76
2024/01/17 06:38:04;;;;;;;18.40;7.57;;;;;;;;;;5036556;28;20197;-75
2024/01/17 06:40:30;;;;;;;17.70;8.03;;;;;;;;;;5039739;28;20316;-75
2024/01/17 06:42:56;;;;;;;14.60;8.07;;;;;;;;;;5040808;28;20197;-75
2024/01/17 06:45:21;;;;;;;17.63;8.47;;;;;;;;;;5043471;28;20224;-75
2024/01/17 06:47:47;;;;;;;20.03;7.80;;;;;;;;;;5044595;28;20193;-76
2024/01/17 06:50:14;;;;;;;15.63;7.90;;;;;;;;;;5031696;28;20292;-75
2024/01/17 06:52:39;;;;;;;14.87;7.37;;;;;;;;;;5042662;28;20182;-75
2024/01/17 06:55:05;;;;;;;15.97;8.13;;;;;;;;;;5028668;28;20201;-75
2024/01/17 06:57:31;;;;;;;14.37;7.30;;;;;;;;;;5024227;28;20201;-75
2024/01/17 06:59:56;;;;;;;18.10;7.57;;;;;;;;;;5031373;28;20593;-76
2024/01/17 07:02:21;;;;;;;17.47;8.43;;;;;;;;;;5034518;28;20190;-75
2024/01/17 07:04:47;;;;;;;14.13;7.37;;;;;;;;;;5038861;28;20273;-75
2024/01/17 07:07:13;;;;;;;15.03;7.43;;;;;;;;;;5033159;28;20193;-75
2024/01/17 07:09:39;;;;;;;15.70;8.20;;;;;;;;;;5040489;28;20190;-75
2024/01/17 07:12:05;;;;;;;15.67;7.73;;;;;;;;;;5024876;28;20713;-76
2024/01/17 07:14:30;;;;;;;15.17;8.07;;;;;;;;;;5041120;28;20229;-75
2024/01/17 07:16:57;;;;;;;17.43;8.37;;;;;;;;;;5033640;28;20676;-75
2024/01/17 07:19:22;;;;;;;17.93;8.27;;;;;;;;;;5035612;28;20271;-75
2024/01/17 07:21:48;;;;;;;19.70;8.43;;;;;;;;;;5035169;28;20193;-75
2024/01/17 07:24:13;;;;;;;16.67;8.23;;;;;;;;;;5031691;28;20269;-75
2024/01/17 07:26:39;;;;;;;18.77;7.53;;;;;;;;;;5029093;28;20727;-75
2024/01/17 07:29:05;;;;;;;17.40;7.63;;;;;;;;;;5032908;28;20652;-75
2024/01/17 07:31:30;;;;;;;16.40;7.60;;;;;;;;;;5029106;28;20251;-75
2024/01/17 07:33:56;;;;;;;19.67;8.17;;;;;;;;;;5041274;28;20185;-75
2024/01/17 07:36:21;;;;;;;20.87;8.53;;;;;;;;;;5029052;28;20206;-75
2024/01/17 07:38:48;;;;;;;16.43;7.50;;;;;;;;;;5035064;28;20258;-75
2024/01/17 07:41:13;;;;;;;15.83;7.73;;;;;;;;;;5033900;28;20210;-75
2024/01/17 07:43:39;;;;;;;14.97;7.50;;;;;;;;;;5042020;28;20578;-75
2024/01/17 07:46:05;;;;;;;14.33;7.30;;;;;;;;;;5037775;28;20597;-75
2024/01/17 07:48:31;;;;;;;17.33;7.60;;;;;;;;;;5047444;28;20584;-75
2024/01/17 07:50:57;;;;;;;13.50;7.43;;;;;;;;;;5036903;28;20193;-75
2024/01/17 07:53:24;;;;;;;19.03;7.90;;;;;;;;;;5044482;28;20239;-75
2024/01/17 07:55:49;;;;;;;19.80;8.10;;;;;;;;;;5029580;28;20504;-75
2024/01/17 07:58:16;;;;;;;14.97;7.63;;;;;;;;;;5026456;28;20197;-76
2024/01/17 08:00:41;;;;;;;16.57;7.97;;;;;;;;;;5032525;28;20278;-75
2024/01/17 08:03:07;;;;;;;15.63;7.67;;;;;;;;;;5044781;28;20201;-75
2024/01/17 08:05:33;;;;;;;16.23;8.00;;;;;;;;;;5033751;28;20554;-75
2024/01/17 08:07:59;;;;;;;18.93;7.90;;;;;;;;;;5046785;28;20189;-75
2024/01/17 08:10:25;;;;;;;14.73;6.80;;;;;;;;;;5030881;28;20391;-75
2024/01/17 08:12:50;;;;;;;22.37;8.57;;;;;;;;;;5036567;28;20246;-75
2024/01/17 08:15:16;;;;;;;15.67;7.93;;;;;;;;;;5041098;28;20356;-75
2024/01/17 08:17:41;;;;;;;17.03;7.70;;;;;;;;;;5031088;28;20181;-75
2024/01/17 08:20:07;;;;;;;16.83;7.77;;;;;;;;;;5033444;28;20305;-75
2024/01/17 08:22:33;;;;;;;14.40;7.37;;;;;;;;;;5037175;28;20189;-75
2024/01/17 08:24:59;;;;;;;18.33;7.63;;;;;;;;;;5042055;28;20264;-75
2024/01/17 08:27:25;;;;;;;14.97;7.50;;;;;;;;;;5033562;28;20177;-75
2024/01/17 08:29:50;;;;;;;19.07;8.10;;;;;;;;;;5033277;28;20375;-75
2024/01/17 08:32:16;;;;;;;21.60;8.63;;;;;;;;;;5034328;28;20513;-75
2024/01/17 08:34:41;;;;;;;17.17;8.23;;;;;;;;;;5032680;28;20239;-75
2024/01/17 08:37:06;;;;;;;18.27;9.23;;;;;;;;;;5034912;28;20198;-75
2024/01/17 08:39:32;;;;;;;18.87;8.73;;;;;;;;;;5037770;28;20296;-75
2024/01/17 08:41:57;;;;;;;21.67;9.27;;;;;;;;;;5029366;28;20182;-75
2024/01/17 08:44:24;;;;;;;16.47;8.53;;;;;;;;;;5041954;28;20197;-75
2024/01/17 08:46:50;;;;;;;19.57;8.57;;;;;;;;;;5043821;28;20200;-75
2024/01/17 08:49:16;;;;;;;19.97;8.77;;;;;;;;;;5028016;28;20248;-75
2024/01/17 08:51:41;;;;;;;17.73;8.70;;;;;;;;;;5027658;28;20186;-75
2024/01/17 08:54:06;;;;;;;18.63;8.80;;;;;;;;;;5034562;28;20392;-75
2024/01/17 08:56:33;;;;;;;17.50;8.97;;;;;;;;;;5034584;28;20214;-76
2024/01/17 08:58:58;;;;;;;18.77;8.77;;;;;;;;;;5042055;28;20190;-75
2024/01/17 09:01:24;;;;;;;19.80;9.33;;;;;;;;;;5034509;28;20272;-75
2024/01/17 09:03:50;;;;;;;22.83;10.07;;;;;;;;;;5044369;28;20197;-75
2024/01/17 09:06:16;;;;;;;19.50;8.97;;;;;;;;;;5028529;28;20197;-75
2024/01/17 09:08:42;;;;;;;22.23;9.60;;;;;;;;;;5045859;28;20186;-75
2024/01/17 09:11:08;;;;;;;19.67;9.23;;;;;;;;;;5022961;28;20175;-75
2024/01/17 09:13:34;;;;;;;18.57;8.40;;;;;;;;;;5037078;28;20205;-75
2024/01/17 09:16:00;;;;;;;22.33;9.47;;;;;;;;;;5050511;28;20268;-75
2024/01/17 09:18:25;;;;;;;15.93;8.73;;;;;;;;;;5032831;28;20198;-75
2024/01/17 09:20:51;;;;;;;15.40;8.57;;;;;;;;;;5033103;28;20209;-75
2024/01/17 09:23:16;;;;;;;21.93;9.83;;;;;;;;;;5036117;28;20206;-75
2024/01/17 09:25:42;;;;;;;16.40;8.57;;;;;;;;;;5034094;28;20291;-76
2024/01/17 09:28:09;;;;;;;20.23;9.37;;;;;;;;;;5043742;28;20272;-75
2024/01/17 09:30:34;;;;;;;20.10;9.17;;;;;;;;;;5036968;28;20177;-76
2024/01/17 09:33:00;;;;;;;20.90;9.50;;;;;;;;;;5046064;28;20519;-75
2024/01/17 09:35:25;;;;;;;19.67;9.07;;;;;;;;;;5045638;28;20271;-76
2024/01/17 09:37:52;;;;;;;18.17;9.67;;;;;;;;;;5039472;28;20193;-76
2024/01/17 09:40:17;;;;;;;17.00;9.60;;;;;;;;;;5047335;28;20791;-75
2024/01/17 09:42:43;;;;;;;18.23;9.20;;;;;;;;;;5038767;28;20276;-76
2024/01/17 09:45:09;;;;;;;18.97;8.87;;;;;;;;;;5030521;28;20201;-75
2024/01/17 09:47:36;;;;;;;17.87;9.43;;;;;;;;;;5045835;28;20184;-75
2024/01/17 09:50:02;;;;;;;18.20;8.93;;;;;;;;;;5047699;28;20268;-76
2024/01/17 09:52:32;;;;;;;18.47;9.77;;;;;;;;;;5036836;28;20265;-76
2024/01/17 09:55:00;;;;;;;22.47;9.73;;;;;;;;;;5038146;28;20247;-75
2024/01/17 09:57:26;;;;;;;25.67;9.60;;;;;;;;;;5040869;28;20190;-75
2024/01/17 09:59:55;;;;;;;18.53;9.03;;;;;;;;;;5039187;28;20224;-76
2024/01/17 10:02:21;;;;;;;18.60;9.97;;;;;;;;;;5036234;28;20202;-75
2024/01/17 10:04:48;;;;;;;20.53;9.30;;;;;;;;;;5030791;28;20193;-75
2024/01/17 10:07:14;;;;;;;17.87;9.80;;;;;;;;;;5042672;28;20213;-76
2024/01/17 10:09:40;;;;;;;16.37;9.27;;;;;;;;;;5048292;28;20205;-76
2024/01/17 10:12:07;;;;;;;18.93;9.10;;;;;;;;;;5042493;28;20748;-75
2024/01/17 10:14:32;;;;;;;16.90;9.43;;;;;;;;;;5028261;28;20218;-75
2024/01/17 10:16:58;;;;;;;20.73;9.03;;;;;;;;;;5029390;28;20273;-76
2024/01/17 10:19:24;;;;;;;21.57;9.47;;;;;;;;;;5024208;28;20631;-76
2024/01/17 10:21:50;;;;;;;20.33;9.83;;;;;;;;;;5044051;28;20207;-76
2024/01/17 10:24:15;;;;;;;18.47;9.67;;;;;;;;;;5045376;28;20257;-75
2024/01/17 10:26:42;;;;;;;22.33;10.07;;;;;;;;;;5021929;28;20629;-75
2024/01/17 10:29:10;;;;;;;18.13;8.90;;;;;;;;;;5035051;28;20297;-75
2024/01/17 10:31:39;;;;;;;18.83;9.33;;;;;;;;;;5033649;28;20185;-75
2024/01/17 10:34:04;;;;;;;20.80;9.50;;;;;;;;;;5045936;28;20299;-75
2024/01/17 10:36:30;;;;;;;17.50;9.20;;;;;;;;;;5037923;28;20707;-75
2024/01/17 10:39:03;;;;;;;19.27;9.50;;;;;;;;;;5021869;28;20385;-76
2024/01/17 10:41:29;;;;;;;19.23;9.73;;;;;;;;;;5042706;28;20639;-75
2024/01/17 10:43:56;;;;;;;19.13;9.20;;;;;;;;;;5040235;28;20273;-75
2024/01/17 10:46:23;;;;;;;18.80;10.37;;;;;;;;;;5031898;28;20269;-75
2024/01/17 10:48:49;;;;;;;19.13;9.73;;;;;;;;;;5033293;28;20197;-75
2024/01/17 10:51:23;;;;;;;18.33;9.83;;;;;;;;;;5040323;28;20182;-75
2024/01/17 10:53:52;;;;;;;17.77;9.27;;;;;;;;;;5037120;28;20180;-75
2024/01/17 10:56:19;;;;;;;16.63;9.47;;;;;;;;;;5049254;28;20266;-75
2024/01/17 10:58:49;;;;;;;18.23;8.87;;;;;;;;;;5038257;28;20703;-75
2024/01/17 11:01:18;;;;;;;18.37;9.50;;;;;;;;;;5048991;28;20213;-75
2024/01/17 11:03:46;;;;;;;20.33;8.77;;;;;;;;;;5042873;28;20638;-75
2024/01/17 11:06:12;;;;;;;17.90;9.50;;;;;;;;;;5028653;28;20217;-75
2024/01/17 11:08:40;;;;;;;17.00;9.30;;;;;;;;;;5030823;28;20606;-75
2024/01/17 11:11:09;;;;;;;17.07;9.40;;;;;;;;;;5033241;28;20186;-75
2024/01/17 11:13:35;;;;;;;17.20;9.53;;;;;;;;;;5025480;28;20193;-77
2024/01/17 11:16:02;;;;;;;16.87;8.90;;;;;;;;;;5029373;28;20312;-75
2024/01/17 11:18:29;;;;;;;17.57;9.40;;;;;;;;;;5040458;28;20663;-75
2024/01/17 11:20:56;;;;;;;13.73;8.40;;;;;;;;;;5042176;28;20217;-75
2024/01/17 11:23:49;;;;;;;15.63;8.67;;;;;;;;;;5040560;28;20291;-75
2024/01/17 11:26:30;;;;;;;18.73;9.97;;;;;;;;;;5037698;28;20219;-75
2024/01/17 11:29:31;;;;;;;18.97;9.00;;;;;;;;;;5033766;28;20289;-75
2024/01/17 11:32:32;;;;;;;18.37;8.97;;;;;;;;;;5039416;28;20234;-75
2024/01/17 11:34:57;;;;;;;18.50;9.47;;;;;;;;;;5033912;28;20265;-75
2024/01/17 11:37:38;;;;;;;18.77;9.00;;;;;;;;;;5038787;28;20201;-75
2024/01/17 11:40:04;;;;;;;17.60;9.27;;;;;;;;;;5026022;28;20581;-75
2024/01/17 11:42:31;;;;;;;18.17;8.87;;;;;;;;;;5046084;28;20181;-76
2024/01/17 11:44:58;;;;;;;17.20;8.70;;;;;;;;;;5041089;28;20729;-76
2024/01/17 11:47:23;;;;;;;17.13;9.30;;;;;;;;;;5034320;28;20185;-75
2024/01/17 11:49:54;;;;;;;18.10;9.27;;;;;;;;;;5026710;28;20340;-75
2024/01/17 11:52:34;;;;;;;17.30;9.37;;;;;;;;;;5041634;28;20624;-75
2024/01/17 11:55:00;;;;;;;19.03;9.23;;;;;;;;;;5040237;28;20219;-75
2024/01/17 11:57:29;;;;;;;16.60;8.73;;;;;;;;;;5038379;28;20252;-75
2024/01/17 12:00:07;;;;;;;20.60;8.57;;;;;;;;;;5029649;28;20240;-75
2024/01/17 12:02:39;;;;;;;15.97;8.77;;;;;;;;;;5037658;28;20216;-76
2024/01/17 12:05:09;;;;;;;19.30;9.33;;;;;;;;;;5027059;28;20202;-76
2024/01/17 12:07:42;;;;;;;16.97;8.60;;;;;;;;;;5013032;28;20182;-76
2024/01/17 12:10:10;;;;;;;16.87;8.70;;;;;;;;;;5030598;28;20177;-76
2024/01/17 12:12:43;;;;;;;14.50;8.53;;;;;;;;;;5043769;28;20231;-76
2024/01/17 12:15:09;;;;;;;15.37;9.13;;;;;;;;;;5037580;28;20240;-76
2024/01/17 12:17:40;;;;;;;19.97;10.07;;;;;;;;;;5037984;28;20530;-75
2024/01/17 12:20:07;;;;;;;18.87;8.97;;;;;;;;;;5012131;28;20208;-75
2024/01/17 12:22:33;;;;;;;22.30;10.13;;;;;;;;;;5043137;28;20193;-76
2024/01/17 12:24:59;;;;;;;16.23;8.70;;;;;;;;;;5032612;28;20193;-75
2024/01/17 12:27:26;;;;;;;22.87;9.43;;;;;;;;;;5035163;28;20188;-76
2024/01/17 12:29:54;;;;;;;17.57;10.23;;;;;;;;;;5045268;28;20275;-76
2024/01/17 12:32:22;;;;;;;18.70;9.30;;;;;;;;;;5031917;28;20520;-75
2024/01/17 12:34:47;;;;;;;17.40;9.67;;;;;;;;;;5047886;28;20182;-76
2024/01/17 12:37:12;;;;;;;16.63;8.83;;;;;;;;;;5038637;28;20351;-76
2024/01/17 12:39:38;;;;;;;17.07;9.07;;;;;;;;;;5044351;28;20189;-76
2024/01/17 12:42:04;;;;;;;17.77;9.33;;;;;;;;;;5041131;28;20186;-75
2024/01/17 12:44:30;;;;;;;25.10;9.87;;;;;;;;;;5025574;28;20186;-77
2024/01/17 12:46:57;;;;;;;16.70;9.17;;;;;;;;;;5039621;28;20189;-76
2024/01/17 12:49:22;;;;;;;19.10;9.53;;;;;;;;;;5035595;28;20188;-77
2024/01/17 12:51:49;;;;;;;22.87;9.47;;;;;;;;;;5045048;28;20186;-77
2024/01/17 12:54:17;;;;;;;18.83;9.90;;;;;;;;;;5042047;28;20190;-77
2024/01/17 12:56:44;;;;;;;20.67;9.33;;;;;;;;;;5049747;28;20197;-76
2024/01/17 12:59:09;;;;;;;22.73;9.27;;;;;;;;;;5029395;28;20243;-76
2024/01/17 13:01:42;;;;;;;15.37;8.87;;;;;;;;;;5051330;28;20213;-76
2024/01/17 13:04:08;;;;;;;20.83;9.77;;;;;;;;;;5033335;28;20657;-76
2024/01/17 13:06:51;;;;;;;18.33;9.67;;;;;;;;;;5031991;28;20179;-76
2024/01/17 13:09:23;;;;;;;18.83;9.50;;;;;;;;;;5037194;28;20190;-76
2024/01/17 13:11:50;;;;;;;18.57;9.67;;;;;;;;;;5036743;28;20181;-76
2024/01/17 13:14:26;;;;;;;16.10;9.20;;;;;;;;;;5029577;28;20178;-76
2024/01/17 13:16:53;;;;;;;20.93;10.33;;;;;;;;;;5029998;28;20189;-75
2024/01/17 13:19:19;;;;;;;22.13;9.33;;;;;;;;;;5031986;28;20206;-77
2024/01/17 13:21:47;;;;;;;17.27;9.87;;;;;;;;;;5047351;28;20801;-76
2024/01/17 13:24:13;;;;;;;16.40;9.33;;;;;;;;;;5033401;28;20194;-75
2024/01/17 13:26:39;;;;;;;17.20;9.33;;;;;;;;;;5045298;28;20193;-76
2024/01/17 13:29:05;;;;;;;18.57;8.87;;;;;;;;;;5035376;28;20194;-76
2024/01/17 13:31:32;;;;;;;16.53;9.03;;;;;;;;;;5029977;28;20187;-76
2024/01/17 13:34:00;;;;;;;22.57;9.60;;;;;;;;;;5045990;28;20272;-76
2024/01/17 13:36:26;;;;;;;17.97;9.30;;;;;;;;;;5002013;28;20189;-76
2024/01/17 13:38:52;;;;;;;21.03;10.60;;;;;;;;;;5048657;28;20194;-76
2024/01/17 13:41:21;;;;;;;26.37;10.43;;;;;;;;;;5049563;28;20205;-76
2024/01/17 13:43:47;;;;;;;20.77;9.77;;;;;;;;;;5047271;28;20260;-76
2024/01/17 13:46:12;;;;;;;19.33;10.33;;;;;;;;;;5043670;28;20177;-75
2024/01/17 13:48:38;;;;;;;16.43;8.87;;;;;;;;;;5038860;28;20178;-75
2024/01/17 13:51:04;;;;;;;18.80;10.30;;;;;;;;;;5047284;28;20189;-76
2024/01/17 13:53:32;;;;;;;25.57;11.07;;;;;;;;;;5044637;28;20494;-75
2024/01/17 13:55:59;;;;;;;18.30;9.87;;;;;;;;;;5029163;28;20648;-76
2024/01/17 13:58:25;;;;;;;19.00;9.87;;;;;;;;;;5044746;28;20178;-76
2024/01/17 14:00:57;;;;;;;19.37;10.13;;;;;;;;;;5037219;28;20229;-76
2024/01/17 14:03:25;;;;;;;17.60;9.33;;;;;;;;;;5027152;28;20212;-76
2024/01/17 14:05:50;;;;;;;21.40;10.07;;;;;;;;;;5033687;28;20544;-76
2024/01/17 14:08:16;;;;;;;20.17;9.67;;;;;;;;;;5040492;28;20198;-77
2024/01/17 14:10:42;;;;;;;18.40;9.50;;;;;;;;;;5039726;28;20185;-76
2024/01/17 14:13:07;;;;;;;17.60;9.43;;;;;;;;;;5039802;28;20762;-76
2024/01/17 14:15:33;;;;;;;18.93;10.33;;;;;;;;;;5038143;28;20586;-77
2024/01/17 14:17:59;;;;;;;21.17;10.77;;;;;;;;;;5030351;28;20209;-77
2024/01/17 14:20:25;;;;;;;19.13;10.53;;;;;;;;;;5043870;28;20256;-77
2024/01/17 14:22:53;;;;;;;22.33;10.33;;;;;;;;;;5058496;28;20424;-77
2024/01/17 14:25:18;;;;;;;18.17;10.03;;;;;;;;;;5055528;28;20886;-76